Time;durP1;ratioP1;P1;durP2;ratioP2;P2;SDS_P1;SDS_P2;PMS_P1;PMS_P2;Temp;Humidity;BMP_temperature;BMP_pressure;BME280_temperature;BME280_humidity;BME280_pressure;Samples;Min_cycle;Max_cycle;Signal;HPM_P1;HPM_P2
2021/08/21 00:00:46;;;;;;;12.35;5.50;;;19.00;78.70;;;;;;4993606;28;20065;-71
2021/08/21 00:03:12;;;;;;;14.88;5.63;;;19.00;78.70;;;;;;4993811;28;20138;-71
2021/08/21 00:05:38;;;;;;;16.50;5.40;;;18.90;79.00;;;;;;4976268;28;20503;-71
2021/08/21 00:08:04;;;;;;;14.82;5.35;;;19.00;79.20;;;;;;4993529;28;20074;-71
2021/08/21 00:10:32;;;;;;;15.32;5.15;;;;;;;;;;4976350;28;20433;-71
2021/08/21 00:12:58;;;;;;;11.13;5.50;;;19.00;78.70;;;;;;4993396;28;20039;-71
2021/08/21 00:15:24;;;;;;;11.23;5.30;;;19.00;79.40;;;;;;4993960;28;20077;-72
2021/08/21 00:17:50;;;;;;;13.38;6.05;;;19.00;79.70;;;;;;4993692;28;20543;-73
2021/08/21 00:20:17;;;;;;;10.15;5.25;;;18.90;79.80;;;;;;4993662;28;20026;-72
2021/08/21 00:22:43;;;;;;;11.90;5.80;;;18.80;79.50;;;;;;4976186;28;20383;-72
2021/08/21 00:25:09;;;;;;;16.13;5.63;;;18.80;80.00;;;;;;4976066;28;20031;-74
2021/08/21 00:27:36;;;;;;;12.77;5.63;;;;;;;;;;4976073;28;20526;-71
2021/08/21 00:30:02;;;;;;;15.95;5.70;;;;;;;;;;4993340;28;20054;-70
2021/08/21 00:32:28;;;;;;;13.70;5.82;;;;;;;;;;4993464;28;20034;-71
2021/08/21 00:34:57;;;;;;;11.25;4.82;;;18.70;99.90;;;;;;4993520;28;20022;-70
2021/08/21 00:37:23;;;;;;;15.23;5.95;;;18.70;99.80;;;;;;4976020;28;20022;-69
2021/08/21 00:39:49;;;;;;;10.40;6.22;;;18.70;99.90;;;;;;4993500;28;20482;-71
2021/08/21 00:42:15;;;;;;;14.27;5.80;;;18.70;99.50;;;;;;4993542;28;20066;-71
2021/08/21 00:44:41;;;;;;;18.90;5.78;;;18.60;98.60;;;;;;4975925;28;20081;-71
2021/08/21 00:47:12;;;;;;;13.73;5.40;;;18.40;98.30;;;;;;4993167;28;20030;-70
2021/08/21 00:49:39;;;;;;;13.10;5.95;;;;;;;;;;4975893;28;20031;-71
2021/08/21 00:52:06;;;;;;;13.48;5.88;;;18.30;81.70;;;;;;4994248;28;20049;-70
2021/08/21 00:54:33;;;;;;;12.00;5.75;;;18.30;82.00;;;;;;4979340;28;20062;-69
2021/08/21 00:57:00;;;;;;;10.45;5.57;;;18.30;81.90;;;;;;4997096;28;20040;-68
2021/08/21 00:59:35;;;;;;;12.45;5.88;;;18.30;82.00;;;;;;4996818;28;20022;-71
2021/08/21 01:02:02;;;;;;;10.43;5.80;;;18.40;90.20;;;;;;4979620;28;20073;-71
2021/08/21 01:04:30;;;;;;;22.08;5.38;;;18.40;90.70;;;;;;4979407;28;20502;-70
2021/08/21 01:06:56;;;;;;;14.02;5.38;;;18.30;85.00;;;;;;4996940;28;20034;-69
2021/08/21 01:09:22;;;;;;;9.88;4.82;;;18.30;83.00;;;;;;4996906;28;20030;-70
2021/08/21 01:11:49;;;;;;;15.00;6.03;;;;;;;;;;4996911;28;20026;-71
2021/08/21 01:14:15;;;;;;;16.77;5.75;;;;;;;;;;4996451;28;20466;-71
2021/08/21 01:16:41;;;;;;;13.80;6.40;;;;;;;;;;4979245;28;20023;-70
2021/08/21 01:19:08;;;;;;;13.65;6.13;;;;;;;;;;4996967;28;20475;-71
2021/08/21 01:21:34;;;;;;;18.85;5.43;;;;;;;;;;4996752;28;20032;-71
2021/08/21 01:24:00;;;;;;;13.18;5.50;;;;;;;;;;4996651;28;20144;-70
2021/08/21 01:26:26;;;;;;;11.63;5.75;;;18.30;99.90;;;;;;4996585;28;20105;-71
2021/08/21 01:28:51;;;;;;;14.73;5.90;;;18.20;92.30;;;;;;4996577;28;20165;-72
2021/08/21 01:31:17;;;;;;;14.18;5.72;;;18.20;92.20;;;;;;4996212;28;20042;-69
2021/08/21 01:33:43;;;;;;;12.05;5.82;;;18.20;91.90;;;;;;4996154;28;20034;-70
2021/08/21 01:36:09;;;;;;;10.73;6.05;;;;;;;;;;4996416;28;20026;-69
2021/08/21 01:38:35;;;;;;;10.90;5.97;;;;;;;;;;4996415;28;20114;-69
2021/08/21 01:41:02;;;;;;;13.05;5.97;;;;;;;;;;4996630;28;20018;-69
2021/08/21 01:43:28;;;;;;;15.40;5.72;;;;;;;;;;4995225;28;20121;-71
2021/08/21 01:46:02;;;;;;;17.08;6.28;;;;;;;;;;4978685;28;20022;-70
2021/08/21 01:48:28;;;;;;;11.23;5.07;;;;;;;;;;4978733;28;20030;-69
2021/08/21 01:50:55;;;;;;;14.82;5.85;;;;;;;;;;4996452;28;20084;-70
2021/08/21 01:53:21;;;;;;;10.65;5.90;;;;;;;;;;4978616;28;20037;-72
2021/08/21 01:55:47;;;;;;;19.05;6.30;;;;;;;;;;4996048;28;20113;-70
2021/08/21 01:58:20;;;;;;;13.40;7.13;;;;;;;;;;4996040;28;20031;-69
2021/08/21 02:00:46;;;;;;;14.80;6.70;;;;;;;;;;4995981;28;20030;-71
2021/08/21 02:03:13;;;;;;;17.23;6.63;;;;;;;;;;4995328;28;20026;-71
2021/08/21 02:05:40;;;;;;;14.82;6.78;;;;;;;;;;4995450;28;20053;-67
2021/08/21 02:08:06;;;;;;;18.50;6.03;;;;;;;;;;4995546;28;20080;-70
2021/08/21 02:10:33;;;;;;;13.20;5.97;;;;;;;;;;4996055;28;20117;-72
2021/08/21 02:12:59;;;;;;;10.93;6.05;;;;;;;;;;4995686;28;20100;-69
2021/08/21 02:15:25;;;;;;;15.35;6.10;;;;;;;;;;4978240;28;20069;-68
2021/08/21 02:17:51;;;;;;;10.43;5.80;;;;;;;;;;4995900;28;20348;-68
2021/08/21 02:20:18;;;;;;;13.10;6.10;;;;;;;;;;4995620;28;20022;-68
2021/08/21 02:22:45;;;;;;;11.05;6.60;;;;;;;;;;4995891;28;20109;-69
2021/08/21 02:25:13;;;;;;;11.85;6.32;;;;;;;;;;4995541;28;20109;-69
2021/08/21 02:27:43;;;;;;;12.18;6.03;;;;;;;;;;4977914;28;20356;-68
2021/08/21 02:30:10;;;;;;;14.13;7.03;;;;;;;;;;4977665;28;20471;-71
2021/08/21 02:32:36;;;;;;;12.63;6.00;;;;;;;;;;4995383;28;20035;-68
2021/08/21 02:35:02;;;;;;;17.00;6.38;;;;;;;;;;4977811;28;20022;-70
2021/08/21 02:37:29;;;;;;;12.55;6.10;;;;;;;;;;4995264;28;20097;-71
2021/08/21 02:39:55;;;;;;;11.52;6.07;;;;;;;;;;4977806;28;20241;-68
2021/08/21 02:42:22;;;;;;;13.43;6.28;;;;;;;;;;4977850;28;20031;-71
2021/08/21 02:44:48;;;;;;;12.05;6.13;;;;;;;;;;4995159;28;20026;-70
2021/08/21 02:47:14;;;;;;;11.73;5.57;;;;;;;;;;4995372;28;20033;-71
2021/08/21 02:49:41;;;;;;;12.07;5.88;;;;;;;;;;4995311;28;20446;-70
2021/08/21 02:52:07;;;;;;;16.42;6.22;;;;;;;;;;4995045;28;20029;-71
2021/08/21 02:54:33;;;;;;;11.40;5.70;;;;;;;;;;4994873;28;20073;-70
2021/08/21 02:56:59;;;;;;;11.43;4.82;;;;;;;;;;4995190;28;20022;-69
2021/08/21 02:59:25;;;;;;;13.40;5.28;;;;;;;;;;4995154;28;20027;-72
2021/08/21 03:01:51;;;;;;;9.50;4.75;;;;;;;;;;4994859;28;20058;-71
2021/08/21 03:04:18;;;;;;;13.68;4.93;;;;;;;;;;4994768;28;20073;-71
2021/08/21 03:06:44;;;;;;;17.77;5.85;;;;;;;;;;4977204;28;20114;-72
2021/08/21 03:09:11;;;;;;;8.90;4.65;;;;;;;;;;4994685;28;20160;-69
2021/08/21 03:11:37;;;;;;;20.83;5.43;;;;;;;;;;4994608;28;20378;-66
2021/08/21 03:14:03;;;;;;;16.38;5.90;;;;;;;;;;4977136;28;20034;-67
2021/08/21 03:16:29;;;;;;;12.52;6.45;;;;;;;;;;4976789;28;20030;-71
2021/08/21 03:18:55;;;;;;;16.35;6.25;;;;;;;;;;4994523;28;20022;-69
2021/08/21 03:21:22;;;;;;;15.57;6.35;;;;;;;;;;4994742;28;20034;-71
2021/08/21 03:23:48;;;;;;;9.80;5.72;;;;;;;;;;4994237;28;20036;-71
2021/08/21 03:26:15;;;;;;;15.43;5.80;;;;;;;;;;4976934;28;20022;-70
2021/08/21 03:28:41;;;;;;;13.40;5.03;;;;;;;;;;4976851;28;20034;-71
2021/08/21 03:31:07;;;;;;;15.15;5.13;;;;;;;;;;4993867;28;20082;-72
2021/08/21 03:33:44;;;;;;;8.02;5.20;;;;;;;;;;4994205;28;20117;-70
2021/08/21 03:36:10;;;;;;;9.73;4.88;;;;;;;;;;4994266;28;20371;-71
2021/08/21 03:38:36;;;;;;;10.05;4.28;;;;;;;;;;4994171;28;20034;-70
2021/08/21 03:41:02;;;;;;;12.13;5.35;;;;;;;;;;4994216;28;20107;-71
2021/08/21 03:43:28;;;;;;;14.00;5.25;;;;;;;;;;4994430;28;20176;-71
2021/08/21 03:45:55;;;;;;;12.65;5.43;;;;;;;;;;4994336;28;20105;-71
2021/08/21 03:48:21;;;;;;;13.23;6.05;;;;;;;;;;4976522;28;20487;-70
2021/08/21 03:50:47;;;;;;;17.25;5.93;;;;;;;;;;4993985;28;20042;-71
2021/08/21 03:53:13;;;;;;;14.85;6.70;;;;;;;;;;4976477;28;20186;-70
2021/08/21 03:55:40;;;;;;;13.10;6.10;;;;;;;;;;4976462;28;20026;-71
2021/08/21 03:58:06;;;;;;;19.67;7.72;;;;;;;;;;4993870;28;20032;-71
2021/08/21 04:00:32;;;;;;;13.15;6.63;;;;;;;;;;4976380;28;20042;-71
2021/08/21 04:02:58;;;;;;;12.63;7.57;;;;;;;;;;4993885;28;20116;-71
2021/08/21 04:05:27;;;;;;;15.82;7.68;;;;;;;;;;4993772;28;20028;-70
2021/08/21 04:07:53;;;;;;;16.85;7.75;;;16.60;91.90;;;;;;4993846;28;20030;-69
2021/08/21 04:10:19;;;;;;;13.70;6.68;;;16.50;92.80;;;;;;4994029;28;20133;-70
2021/08/21 04:12:46;;;;;;;22.77;7.85;;;16.50;92.80;;;;;;4976345;28;20046;-70
2021/08/21 04:15:12;;;;;;;24.35;7.60;;;16.50;92.90;;;;;;4993985;28;20085;-71
2021/08/21 04:17:38;;;;;;;18.02;7.60;;;16.40;92.80;;;;;;4993689;28;20033;-70
2021/08/21 04:20:05;;;;;;;20.95;7.30;;;16.50;92.80;;;;;;4993653;28;20065;-70
2021/08/21 04:22:31;;;;;;;23.52;7.05;;;16.50;92.80;;;;;;4993929;28;20026;-71
2021/08/21 04:24:57;;;;;;;12.50;6.55;;;16.60;92.40;;;;;;4993621;28;20061;-72
2021/08/21 04:27:23;;;;;;;11.90;6.30;;;16.60;92.20;;;;;;4994913;28;20066;-70
2021/08/21 04:29:49;;;;;;;16.40;6.93;;;16.70;92.20;;;;;;4997612;28;20105;-71
2021/08/21 04:32:15;;;;;;;16.92;6.60;;;16.70;92.30;;;;;;4997709;28;20089;-66
2021/08/21 04:34:41;;;;;;;18.67;7.53;;;16.80;91.80;;;;;;4997560;28;20053;-67
2021/08/21 04:37:06;;;;;;;13.77;6.72;;;16.90;92.00;;;;;;4997790;28;20045;-69
2021/08/21 04:39:33;;;;;;;15.57;7.13;;;17.00;91.50;;;;;;4997482;28;20025;-67
2021/08/21 04:41:59;;;;;;;18.05;7.50;;;16.90;91.50;;;;;;4979880;28;20049;-71
2021/08/21 04:44:25;;;;;;;15.00;7.45;;;17.00;91.70;;;;;;4979941;28;20129;-69
2021/08/21 04:46:51;;;;;;;15.70;8.43;;;17.00;91.40;;;;;;4979787;28;20113;-70
2021/08/21 04:49:17;;;;;;;15.30;7.82;;;17.00;91.00;;;;;;4997067;28;20088;-70
2021/08/21 04:51:43;;;;;;;12.77;7.53;;;17.10;90.90;;;;;;4997256;28;20058;-70
2021/08/21 04:54:09;;;;;;;18.98;7.25;;;17.10;90.80;;;;;;4997162;28;20383;-69
2021/08/21 04:56:35;;;;;;;16.27;7.38;;;17.20;90.90;;;;;;4997426;28;20037;-69
2021/08/21 04:59:01;;;;;;;13.02;7.72;;;17.20;90.80;;;;;;4979619;28;20393;-69
2021/08/21 05:01:27;;;;;;;17.10;7.60;;;17.20;90.70;;;;;;4997297;28;20026;-68
2021/08/21 05:03:53;;;;;;;17.00;6.38;;;17.30;90.80;;;;;;4997136;28;20116;-70
2021/08/21 05:06:18;;;;;;;13.85;6.63;;;17.30;90.60;;;;;;4997221;28;20101;-69
2021/08/21 05:08:44;;;;;;;12.63;6.38;;;17.40;90.60;;;;;;4979451;28;20121;-71
2021/08/21 05:11:11;;;;;;;13.32;6.18;;;17.50;90.40;;;;;;4996919;28;20041;-71
2021/08/21 05:13:37;;;;;;;13.07;5.70;;;;;;;;;;4996846;28;20034;-70
2021/08/21 05:16:03;;;;;;;13.15;6.40;;;17.60;89.70;;;;;;4997134;28;20030;-70
2021/08/21 05:18:34;;;;;;;8.32;5.95;;;17.60;90.00;;;;;;4996825;28;20034;-70
2021/08/21 05:21:08;;;;;;;11.05;5.25;;;17.60;90.20;;;;;;4979221;28;20069;-69
2021/08/21 05:23:35;;;;;;;11.18;5.97;;;17.70;90.50;;;;;;4979282;28;20397;-71
2021/08/21 05:26:01;;;;;;;13.77;6.10;;;17.70;90.70;;;;;;4996653;28;20030;-70
2021/08/21 05:28:28;;;;;;;13.02;6.85;;;17.80;90.50;;;;;;4996558;28;20030;-70
2021/08/21 05:31:03;;;;;;;18.83;7.15;;;;;;;;;;4994004;28;20045;-70
2021/08/21 05:33:33;;;;;;;12.77;5.80;;;17.90;90.30;;;;;;4996660;28;20102;-69
2021/08/21 05:35:59;;;;;;;17.27;6.45;;;18.00;90.70;;;;;;4996427;28;20027;-70
2021/08/21 05:38:25;;;;;;;16.33;6.05;;;18.10;90.70;;;;;;4978733;28;20030;-70
2021/08/21 05:40:51;;;;;;;12.75;6.20;;;18.20;90.40;;;;;;4996379;28;20030;-69
2021/08/21 05:43:17;;;;;;;10.45;6.13;;;;;;;;;;4996304;28;20038;-69
2021/08/21 05:45:43;;;;;;;14.88;5.95;;;;;;;;;;4978722;28;20426;-71
2021/08/21 05:48:09;;;;;;;11.25;7.43;;;18.30;90.90;;;;;;4978615;28;20538;-71
2021/08/21 05:50:35;;;;;;;19.35;8.18;;;18.60;89.20;;;;;;4996167;28;20039;-71
2021/08/21 05:53:01;;;;;;;22.98;10.48;;;18.70;88.70;;;;;;4996029;28;20041;-72
2021/08/21 05:55:27;;;;;;;31.42;14.60;;;18.80;86.90;;;;;;4996107;28;20026;-69
2021/08/21 05:57:53;;;;;;;28.38;15.18;;;18.90;86.00;;;;;;4978557;28;20430;-72
2021/08/21 06:00:18;;;;;;;27.23;13.07;;;19.10;85.40;;;;;;4995763;28;20022;-70
2021/08/21 06:02:44;;;;;;;31.30;12.70;;;19.20;84.50;;;;;;4978464;28;20030;-73
2021/08/21 06:05:11;;;;;;;28.15;12.88;;;19.80;92.80;;;;;;4995962;28;20375;-71
2021/08/21 06:07:38;;;;;;;28.20;12.05;;;19.40;84.80;;;;;;4995865;28;20166;-70
2021/08/21 06:10:05;;;;;;;26.55;12.98;;;19.50;90.00;;;;;;4978278;28;20117;-67
2021/08/21 06:12:32;;;;;;;16.88;9.80;;;;;;;;;;4995457;28;20381;-72
2021/08/21 06:14:57;;;;;;;16.48;9.23;;;19.70;81.00;;;;;;4978253;28;20585;-72
2021/08/21 06:17:23;;;;;;;10.27;7.20;;;19.80;83.40;;;;;;4978188;28;20069;-73
2021/08/21 06:19:49;;;;;;;18.05;6.90;;;20.00;81.60;;;;;;4995873;28;20344;-72
2021/08/21 06:22:15;;;;;;;9.73;5.00;;;20.10;81.80;;;;;;4978034;28;20026;-68
2021/08/21 06:24:44;;;;;;;12.88;5.80;;;20.20;80.80;;;;;;4978058;28;20035;-71
2021/08/21 06:27:10;;;;;;;16.77;5.28;;;20.30;79.10;;;;;;4995483;28;20031;-70
2021/08/21 06:29:36;;;;;;;10.52;4.60;;;20.40;79.60;;;;;;4995271;28;20037;-71
2021/08/21 06:32:06;;;;;;;12.43;4.53;;;20.50;77.90;;;;;;4995155;28;20482;-69
2021/08/21 06:34:33;;;;;;;7.18;4.53;;;20.60;78.50;;;;;;4977837;28;20487;-70
2021/08/21 06:37:00;;;;;;;12.15;5.15;;;20.70;77.90;;;;;;4994813;28;20027;-70
2021/08/21 06:39:26;;;;;;;10.50;4.47;;;20.80;78.20;;;;;;4993169;28;20081;-70
2021/08/21 06:41:52;;;;;;;14.57;5.43;;;20.90;78.00;;;;;;4993562;28;20019;-69
2021/08/21 06:44:18;;;;;;;18.35;4.50;;;21.10;77.20;;;;;;4993519;28;20337;-70
2021/08/21 06:46:44;;;;;;;10.18;4.65;;;;;;;;;;4993426;28;20022;-70
2021/08/21 06:49:10;;;;;;;10.68;4.68;;;;;;;;;;4993651;28;20105;-71
2021/08/21 06:51:36;;;;;;;23.02;5.72;;;21.50;75.80;;;;;;4994188;28;20074;-72
2021/08/21 06:54:02;;;;;;;10.05;4.80;;;21.60;76.40;;;;;;4994953;28;20034;-70
2021/08/21 06:56:28;;;;;;;15.20;6.80;;;21.70;75.70;;;;;;4994944;28;20033;-72
2021/08/21 06:58:54;;;;;;;13.30;5.60;;;21.90;76.00;;;;;;4977305;28;20023;-70
2021/08/21 07:01:20;;;;;;;12.73;4.55;;;22.00;76.00;;;;;;4994758;28;20034;-70
2021/08/21 07:03:46;;;;;;;6.53;4.10;;;22.10;74.20;;;;;;4994791;28;20030;-71
2021/08/21 07:06:11;;;;;;;11.05;4.97;;;22.20;73.70;;;;;;4994820;28;20030;-71
2021/08/21 07:08:37;;;;;;;11.57;4.60;;;22.20;73.60;;;;;;4994749;28;20079;-72
2021/08/21 07:11:03;;;;;;;17.05;4.15;;;22.40;74.10;;;;;;4977219;28;20030;-71
2021/08/21 07:13:29;;;;;;;7.97;3.85;;;22.50;72.80;;;;;;4994508;28;20481;-72
2021/08/21 07:15:55;;;;;;;10.30;4.10;;;22.60;74.30;;;;;;4994612;28;20034;-72
2021/08/21 07:18:21;;;;;;;10.60;3.95;;;22.80;71.90;;;;;;4994239;28;20142;-71
2021/08/21 07:20:46;;;;;;;11.15;4.20;;;22.80;71.70;;;;;;4976940;28;20030;-72
2021/08/21 07:23:15;;;;;;;12.85;4.18;;;23.00;71.70;;;;;;4994417;28;20030;-73
2021/08/21 07:25:42;;;;;;;14.60;4.43;;;23.10;73.10;;;;;;4994167;28;20391;-72
2021/08/21 07:28:09;;;;;;;15.10;4.60;;;23.20;71.60;;;;;;4994404;28;20105;-72
2021/08/21 07:30:35;;;;;;;14.18;4.00;;;23.40;72.70;;;;;;4994210;28;20057;-71
2021/08/21 07:33:01;;;;;;;8.60;3.30;;;23.50;71.60;;;;;;4994144;28;20035;-70
2021/08/21 07:35:27;;;;;;;8.52;3.20;;;23.60;71.30;;;;;;4994249;28;20030;-73
2021/08/21 07:37:53;;;;;;;13.82;3.60;;;23.70;70.20;;;;;;4994146;28;20032;-74
2021/08/21 07:40:18;;;;;;;19.75;4.22;;;23.90;69.40;;;;;;4993980;28;20030;-71
2021/08/21 07:42:44;;;;;;;9.90;3.97;;;24.00;69.40;;;;;;4993918;28;20056;-71
2021/08/21 07:45:11;;;;;;;19.63;3.55;;;24.10;70.00;;;;;;4975993;28;20023;-71
2021/08/21 07:47:36;;;;;;;9.25;3.40;;;24.30;68.60;;;;;;4993949;28;20109;-72
2021/08/21 07:50:03;;;;;;;9.45;3.50;;;24.40;67.70;;;;;;4994195;28;20106;-72
2021/08/21 07:52:29;;;;;;;10.23;3.60;;;24.60;66.60;;;;;;4976443;28;20478;-71
2021/08/21 07:54:56;;;;;;;13.60;3.75;;;24.70;67.50;;;;;;4993585;28;20038;-71
2021/08/21 07:57:22;;;;;;;12.20;3.22;;;24.90;67.00;;;;;;4993901;28;20117;-72
2021/08/21 07:59:48;;;;;;;11.98;2.95;;;25.00;65.40;;;;;;4993873;28;20034;-73
2021/08/21 08:02:14;;;;;;;6.95;2.83;;;25.20;65.70;;;;;;4992937;28;20074;-73
2021/08/21 08:04:45;;;;;;;7.45;2.70;;;25.30;64.10;;;;;;4993366;28;20129;-72
2021/08/21 08:07:11;;;;;;;6.75;2.95;;;25.40;63.90;;;;;;4992914;28;20048;-73
2021/08/21 08:09:36;;;;;;;10.02;3.08;;;25.60;65.00;;;;;;4991839;28;20460;-74
2021/08/21 08:12:02;;;;;;;7.90;3.13;;;25.80;63.80;;;;;;5010799;28;20088;-71
2021/08/21 08:14:28;;;;;;;10.88;3.17;;;25.90;64.00;;;;;;5012360;28;20038;-71
2021/08/21 08:16:54;;;;;;;4.75;2.72;;;26.00;62.70;;;;;;5012240;28;20037;-71
2021/08/21 08:19:20;;;;;;;7.05;3.08;;;26.20;62.90;;;;;;5012462;28;20421;-74
2021/08/21 08:21:46;;;;;;;10.55;2.92;;;26.30;62.10;;;;;;5012160;28;20029;-71
2021/08/21 08:24:13;;;;;;;13.32;2.88;;;26.50;60.30;;;;;;4994840;28;20037;-71
2021/08/21 08:26:39;;;;;;;8.35;2.65;;;26.60;61.60;;;;;;5013145;28;20026;-71
2021/08/21 08:29:05;;;;;;;6.93;2.80;;;26.80;60.10;;;;;;5012816;28;20048;-73
2021/08/21 08:31:31;;;;;;;4.00;2.28;;;26.80;58.20;;;;;;4991787;28;20411;-72
2021/08/21 08:33:57;;;;;;;7.55;2.30;;;26.90;56.50;;;;;;4993466;28;20046;-71
2021/08/21 08:36:23;;;;;;;2.92;2.08;;;27.00;58.00;;;;;;4993385;28;20034;-72
2021/08/21 08:38:49;;;;;;;4.45;2.60;;;27.10;58.30;;;;;;4993179;28;20031;-70
2021/08/21 08:41:20;;;;;;;2.83;2.55;;;27.30;59.10;;;;;;4993477;28;20030;-73
2021/08/21 08:43:46;;;;;;;8.55;3.65;;;27.50;58.50;;;;;;4993496;28;20035;-71
2021/08/21 08:46:12;;;;;;;9.68;4.15;;;27.50;57.20;;;;;;4992203;28;20092;-72
2021/08/21 08:48:39;;;;;;;10.55;4.38;;;27.60;57.80;;;;;;4993671;28;20475;-71
2021/08/21 08:51:07;;;;;;;9.00;2.70;;;27.70;57.40;;;;;;4993377;28;20035;-71
2021/08/21 08:53:35;;;;;;;5.57;2.92;;;27.80;56.70;;;;;;4993209;28;20039;-71
2021/08/21 08:56:01;;;;;;;5.95;2.78;;;27.90;56.00;;;;;;4993632;28;20050;-70
2021/08/21 08:58:27;;;;;;;3.35;2.15;;;28.10;58.70;;;;;;4992031;28;20031;-72
2021/08/21 09:00:53;;;;;;;6.93;2.58;;;28.20;55.80;;;;;;4993291;28;20034;-72
2021/08/21 09:03:28;;;;;;;6.07;2.53;;;28.30;56.30;;;;;;4991903;28;20076;-72
2021/08/21 09:05:55;;;;;;;4.72;2.40;;;28.40;56.50;;;;;;4979030;28;20042;-70
2021/08/21 09:08:29;;;;;;;4.40;2.60;;;28.60;56.10;;;;;;4982667;28;20030;-69
2021/08/21 09:11:00;;;;;;;4.07;2.47;;;28.80;55.90;;;;;;4983531;28;20050;-70
2021/08/21 09:13:27;;;;;;;2.50;2.30;;;28.90;55.00;;;;;;4979257;28;20035;-72
2021/08/21 09:15:59;;;;;;;3.70;2.22;;;29.00;55.50;;;;;;4977313;28;20031;-71
2021/08/21 09:18:29;;;;;;;3.13;2.25;;;29.00;55.10;;;;;;4977244;28;20054;-71
2021/08/21 09:21:01;;;;;;;7.32;2.47;;;29.00;54.00;;;;;;4977300;28;20035;-71
2021/08/21 09:23:39;;;;;;;7.78;2.47;;;29.10;53.90;;;;;;4974856;28;20039;-71
2021/08/21 09:26:20;;;;;;;3.50;2.22;;;29.30;54.80;;;;;;4975752;28;20031;-71
2021/08/21 09:28:50;;;;;;;6.15;2.53;;;29.60;54.40;;;;;;4977298;28;20555;-71
2021/08/21 09:31:18;;;;;;;3.30;2.40;;;29.60;53.50;;;;;;4990578;28;20054;-71
2021/08/21 09:33:54;;;;;;;5.75;2.42;;;29.70;53.70;;;;;;4995983;28;20042;-71
2021/08/21 09:36:38;;;;;;;6.00;2.80;;;29.90;53.80;;;;;;4996283;28;20410;-71
2021/08/21 09:39:09;;;;;;;10.27;2.42;;;30.10;53.80;;;;;;4996253;28;20459;-71
2021/08/21 09:41:56;;;;;;;3.28;2.63;;;30.20;53.50;;;;;;4996257;28;20057;-72
2021/08/21 09:44:29;;;;;;;2.78;2.13;;;30.30;53.00;;;;;;4994328;28;20034;-71
2021/08/21 09:47:23;;;;;;;5.35;2.80;;;30.40;53.20;;;;;;4977001;28;20117;-73
2021/08/21 09:49:49;;;;;;;4.43;2.60;;;30.50;52.80;;;;;;5001364;28;20030;-71
2021/08/21 09:52:17;;;;;;;6.45;2.53;;;30.50;51.90;;;;;;5015109;28;20379;-72
2021/08/21 09:55:05;;;;;;;4.25;2.33;;;30.80;51.80;;;;;;5015257;28;20033;-72
2021/08/21 09:57:32;;;;;;;3.90;2.92;;;31.10;52.10;;;;;;5014628;28;20025;-72
2021/08/21 10:00:03;;;;;;;5.38;2.33;;;31.30;51.20;;;;;;4989484;28;20030;-74
2021/08/21 10:02:30;;;;;;;2.55;2.35;;;31.40;50.30;;;;;;5015223;28;20030;-70
2021/08/21 10:04:56;;;;;;;4.93;2.83;;;31.40;51.20;;;;;;5015457;28;20041;-71
2021/08/21 10:07:30;;;;;;;3.13;2.10;;;31.50;50.70;;;;;;4997882;28;20026;-70
2021/08/21 10:09:57;;;;;;;13.00;3.22;;;31.80;50.10;;;;;;5015441;28;20390;-69
2021/08/21 10:12:23;;;;;;;2.65;2.40;;;32.00;50.50;;;;;;4997774;28;20489;-68
2021/08/21 10:14:50;;;;;;;3.42;2.47;;;32.10;49.80;;;;;;5015199;28;20038;-69
2021/08/21 10:17:18;;;;;;;2.90;2.45;;;32.20;50.70;;;;;;5015274;28;20040;-70
2021/08/21 10:19:45;;;;;;;4.50;2.63;;;32.40;50.80;;;;;;5015167;28;20030;-68
2021/08/21 10:22:15;;;;;;;2.85;2.65;;;32.60;49.40;;;;;;5014914;28;20080;-71
2021/08/21 10:24:44;;;;;;;7.47;2.65;;;32.80;49.70;;;;;;5014197;28;20030;-71
2021/08/21 10:27:29;;;;;;;2.50;2.30;;;33.00;49.80;;;;;;4997449;28;20034;-69
2021/08/21 10:30:07;;;;;;;3.05;1.88;;;33.20;48.10;;;;;;4991165;28;20121;-70
2021/08/21 10:32:41;;;;;;;3.63;2.10;;;33.70;48.30;;;;;;5011389;28;20374;-71
2021/08/21 10:35:09;;;;;;;3.50;2.50;;;34.20;48.30;;;;;;5009495;28;20018;-69
2021/08/21 10:37:41;;;;;;;3.85;2.35;;;34.80;47.10;;;;;;5014571;28;20028;-71
2021/08/21 10:40:28;;;;;;;2.88;2.30;;;35.50;46.70;;;;;;5014446;28;20107;-71
2021/08/21 10:42:56;;;;;;;4.82;2.45;;;35.60;45.50;;;;;;5011643;28;20097;-71
2021/08/21 10:45:46;;;;;;;3.55;2.10;;;;;;;;;;5014034;28;20037;-70
2021/08/21 10:48:36;;;;;;;4.68;2.60;;;;;;;;;;4984854;28;20018;-70
2021/08/21 10:51:05;;;;;;;3.17;2.22;;;;;;;;;;4966807;28;20031;-70
2021/08/21 10:53:35;;;;;;;2.45;2.15;;;36.20;45.40;;;;;;4975525;28;20035;-70
2021/08/21 10:56:03;;;;;;;3.53;2.28;;;;;;;;;;4975318;28;20031;-71
2021/08/21 10:58:30;;;;;;;3.40;2.70;;;;;;;;;;4975213;28;20173;-72
2021/08/21 11:00:58;;;;;;;3.33;2.30;;;38.60;42.00;;;;;;4975409;28;20303;-72
2021/08/21 11:03:24;;;;;;;3.80;2.42;;;39.30;41.80;;;;;;4975421;28;20113;-68
2021/08/21 11:06:04;;;;;;;2.65;2.40;;;39.40;41.20;;;;;;4975427;28;20109;-68
2021/08/21 11:08:57;;;;;;;2.85;2.53;;;39.80;40.70;;;;;;4975396;28;20121;-68
2021/08/21 11:11:36;;;;;;;5.53;2.45;;;40.50;39.80;;;;;;4963145;28;20114;-70
2021/08/21 11:14:08;;;;;;;3.00;2.70;;;40.70;39.50;;;;;;4975238;28;20042;-69
2021/08/21 11:16:53;;;;;;;3.08;2.33;;;40.50;38.80;;;;;;4957849;28;20027;-70
2021/08/21 11:19:28;;;;;;;5.57;2.80;;;40.80;38.90;;;;;;4974938;28;20102;-68
2021/08/21 11:22:15;;;;;;;3.50;2.53;;;41.40;38.10;;;;;;4974863;28;20122;-68
2021/08/21 11:24:56;;;;;;;3.58;2.63;;;;;;;;;;4979675;28;20085;-68
2021/08/21 11:27:30;;;;;;;7.22;2.13;;;42.10;37.70;;;;;;4976515;28;20053;-70
2021/08/21 11:30:24;;;;;;;4.07;2.40;;;42.50;36.70;;;;;;4976481;28;20066;-71
2021/08/21 11:33:12;;;;;;;9.80;2.70;;;42.60;37.30;;;;;;4976575;28;20034;-71
2021/08/21 11:35:51;;;;;;;2.75;2.20;;;43.10;37.20;;;;;;4994040;28;20106;-69
2021/08/21 11:38:32;;;;;;;5.90;2.50;;;43.80;36.40;;;;;;4976573;28;20033;-70
2021/08/21 11:41:01;;;;;;;6.93;2.40;;;43.30;36.40;;;;;;4993966;28;20030;-68
2021/08/21 11:43:29;;;;;;;3.28;2.50;;;43.90;35.50;;;;;;4976513;28;20437;-70
2021/08/21 11:45:57;;;;;;;3.00;2.40;;;43.40;35.70;;;;;;4976588;28;20025;-69
2021/08/21 11:48:41;;;;;;;3.10;2.75;;;44.10;35.90;;;;;;4993963;28;20157;-69
2021/08/21 11:51:08;;;;;;;4.82;2.72;;;44.50;35.50;;;;;;4976366;28;20041;-68
2021/08/21 11:53:37;;;;;;;4.97;2.30;;;44.10;35.70;;;;;;4993727;28;20399;-69
2021/08/21 11:56:03;;;;;;;6.47;2.83;;;44.80;35.70;;;;;;4976319;28;20034;-69
2021/08/21 11:58:46;;;;;;;3.10;2.58;;;45.00;34.90;;;;;;4993858;28;20030;-69
2021/08/21 12:01:14;;;;;;;3.03;2.20;;;45.00;35.20;;;;;;4993502;28;20105;-69
2021/08/21 12:06:34;;;;;;;4.65;2.45;;;45.70;34.80;;;;;;4993736;28;20133;-72
2021/08/21 12:09:09;;;;;;;7.78;2.58;;;45.40;35.30;;;;;;4993635;28;20027;-71
2021/08/21 12:11:35;;;;;;;3.78;2.50;;;45.20;35.00;;;;;;4993705;28;20131;-71
2021/08/21 12:14:01;;;;;;;2.00;1.88;;;45.00;34.10;;;;;;4993257;28;20027;-73
2021/08/21 12:16:31;;;;;;;3.13;2.30;;;44.90;34.70;;;;;;4976192;28;20478;-72
2021/08/21 12:18:57;;;;;;;4.80;2.92;;;45.70;34.40;;;;;;4975869;28;20026;-72
2021/08/21 12:21:24;;;;;;;2.10;2.00;;;46.20;34.50;;;;;;4993870;28;20033;-72
2021/08/21 12:23:52;;;;;;;3.08;2.40;;;46.30;33.70;;;;;;4976052;28;20122;-72
2021/08/21 12:26:39;;;;;;;3.90;2.40;;;45.70;33.50;;;;;;4993592;28;20368;-70
2021/08/21 12:29:18;;;;;;;3.63;2.20;;;46.30;34.70;;;;;;4975944;28;20458;-71
2021/08/21 12:31:44;;;;;;;5.35;2.53;;;46.10;33.40;;;;;;4993642;28;20129;-71
2021/08/21 12:34:19;;;;;;;3.20;2.47;;;46.50;34.20;;;;;;4975880;28;20126;-71
2021/08/21 12:36:46;;;;;;;2.47;2.08;;;45.70;33.80;;;;;;4993334;28;20026;-72
2021/08/21 12:39:18;;;;;;;3.80;2.13;;;45.60;34.00;;;;;;4976011;28;20030;-71
2021/08/21 12:41:54;;;;;;;4.28;2.47;;;45.90;34.30;;;;;;4993805;28;20343;-72
2021/08/21 12:44:23;;;;;;;4.18;2.38;;;45.40;33.40;;;;;;4993461;28;20026;-72
2021/08/21 12:46:53;;;;;;;3.38;2.28;;;45.70;34.00;;;;;;4993492;28;20034;-72
2021/08/21 12:49:38;;;;;;;4.55;2.50;;;45.30;34.30;;;;;;4996142;28;20026;-72
2021/08/21 12:52:11;;;;;;;5.45;2.35;;;45.40;33.90;;;;;;4997309;28;20033;-71
2021/08/21 12:54:40;;;;;;;13.82;2.80;;;46.40;33.70;;;;;;4997314;28;20125;-73
2021/08/21 12:57:20;;;;;;;2.63;2.38;;;47.00;33.30;;;;;;4997222;28;20030;-70
2021/08/21 13:00:12;;;;;;;3.05;2.47;;;45.80;33.30;;;;;;4996909;28;20375;-71
2021/08/21 13:02:49;;;;;;;3.70;2.38;;;45.00;33.90;;;;;;4979653;28;20026;-72
2021/08/21 13:05:23;;;;;;;2.80;2.60;;;46.00;33.70;;;;;;4997156;28;20022;-72
2021/08/21 13:07:51;;;;;;;2.40;2.20;;;46.50;33.30;;;;;;4996819;28;20045;-73
2021/08/21 13:10:22;;;;;;;3.10;2.25;;;46.80;33.20;;;;;;4996912;28;20124;-73
2021/08/21 13:12:48;;;;;;;2.40;2.20;;;46.60;33.00;;;;;;4996934;28;20058;-71
2021/08/21 13:15:17;;;;;;;3.75;2.13;;;46.70;35.70;;;;;;4996850;28;20069;-71
2021/08/21 13:17:43;;;;;;;4.78;2.42;;;46.60;33.10;;;;;;4979220;28;20026;-70